Time;durP1;ratioP1;P1;durP2;ratioP2;P2;SDS_P1;SDS_P2;PMS_P1;PMS_P2;Temp;Humidity;BMP_temperature;BMP_pressure;BME280_temperature;BME280_humidity;BME280_pressure;Samples;Min_cycle;Max_cycle;Signal;HPM_P1;HPM_P2
2022/04/04 04:10:56;;;;;;;3.58;3.38;;;-5.70;99.90;;;;;;6037789;23;20166;-67
2022/04/04 04:13:24;;;;;;;3.13;2.92;;;-5.80;99.90;;;;;;4976742;28;20295;-67
2022/04/04 04:15:51;;;;;;;3.60;3.40;;;-5.80;99.90;;;;;;4974509;28;20286;-67
2022/04/04 04:18:18;;;;;;;3.33;3.13;;;-5.80;99.90;;;;;;4974441;28;20231;-67
2022/04/04 04:20:45;;;;;;;3.63;3.33;;;-5.90;99.90;;;;;;4974022;28;20659;-67
2022/04/04 04:23:13;;;;;;;3.22;3.03;;;-5.80;99.90;;;;;;4974574;28;20682;-65
2022/04/04 04:25:40;;;;;;;3.00;2.85;;;-5.80;99.90;;;;;;4974448;28;20286;-66
2022/04/04 04:28:09;;;;;;;3.60;3.33;;;-5.80;99.90;;;;;;4974370;28;20215;-64
2022/04/04 04:30:38;;;;;;;3.55;2.88;;;-5.80;99.90;;;;;;4974373;28;20227;-65
2022/04/04 04:33:06;;;;;;;3.85;3.58;;;-5.80;99.90;;;;;;4974374;28;20306;-64
2022/04/04 04:35:33;;;;;;;3.75;3.45;;;-5.80;99.90;;;;;;4974516;28;20207;-65
2022/04/04 04:38:00;;;;;;;3.53;3.33;;;-5.80;99.90;;;;;;4974330;28;20226;-65
2022/04/04 04:40:28;;;;;;;3.30;3.10;;;-5.80;99.90;;;;;;4974467;28;20352;-65
2022/04/04 04:42:56;;;;;;;3.65;3.45;;;-5.90;99.90;;;;;;4974437;28;20298;-66
2022/04/04 04:45:23;;;;;;;3.65;3.35;;;-5.90;99.90;;;;;;4974528;28;20210;-66
2022/04/04 04:47:51;;;;;;;3.97;3.67;;;-5.90;99.90;;;;;;4974492;28;20294;-66
2022/04/04 04:50:20;;;;;;;4.13;3.83;;;-5.90;99.90;;;;;;4974197;28;20215;-66
2022/04/04 04:52:47;;;;;;;4.07;3.70;;;-6.00;99.90;;;;;;4974225;28;20290;-65
2022/04/04 04:55:16;;;;;;;4.45;4.05;;;-6.00;99.90;;;;;;4974206;28;20203;-67
2022/04/04 04:57:43;;;;;;;3.70;3.50;;;-6.00;99.90;;;;;;4973953;28;20696;-67
2022/04/04 05:00:14;;;;;;;4.20;3.90;;;-6.00;99.90;;;;;;4974395;28;20200;-67
2022/04/04 05:02:40;;;;;;;4.85;4.25;;;-6.00;99.90;;;;;;4973811;28;20762;-67
2022/04/04 05:05:09;;;;;;;4.30;4.00;;;-6.00;99.90;;;;;;4974068;28;20294;-67
2022/04/04 05:07:36;;;;;;;3.72;3.55;;;-6.00;99.90;;;;;;4973850;28;20294;-68
2022/04/04 05:10:04;;;;;;;4.10;3.80;;;-6.00;99.90;;;;;;4973999;28;20307;-68
2022/04/04 05:12:31;;;;;;;4.60;4.20;;;-6.00;99.90;;;;;;4973804;28;20211;-67
2022/04/04 05:14:58;;;;;;;4.10;3.83;;;-6.00;99.90;;;;;;4973832;28;20287;-67
2022/04/04 05:17:24;;;;;;;4.15;3.85;;;-5.90;99.90;;;;;;4974036;28;20206;-67
2022/04/04 05:19:51;;;;;;;4.22;3.92;;;-5.90;99.90;;;;;;4974228;28;20299;-67
2022/04/04 05:22:20;;;;;;;4.68;4.28;;;-5.80;99.90;;;;;;4974496;28;20627;-67
2022/04/04 05:24:47;;;;;;;4.70;4.25;;;-5.80;99.90;;;;;;4976931;28;20200;-67
2022/04/04 05:27:14;;;;;;;4.20;3.90;;;-5.70;99.90;;;;;;4977691;28;20235;-67
2022/04/04 05:29:41;;;;;;;5.15;4.20;;;-5.60;99.90;;;;;;4978038;28;20239;-66
2022/04/04 05:32:08;;;;;;;5.03;4.63;;;-5.50;99.90;;;;;;4977719;28;20302;-67
2022/04/04 05:34:35;;;;;;;5.53;4.88;;;-5.30;99.90;;;;;;4977113;28;20207;-68
2022/04/04 05:37:04;;;;;;;5.50;5.00;;;-5.10;99.90;;;;;;4977372;28;20298;-68
2022/04/04 05:39:32;;;;;;;4.53;4.13;;;-4.90;99.90;;;;;;4977283;28;20211;-66
2022/04/04 05:41:59;;;;;;;5.22;4.82;;;-4.60;99.90;;;;;;4977105;28;20318;-66
2022/04/04 05:44:26;;;;;;;5.55;5.05;;;-4.30;99.90;;;;;;4977247;28;20207;-66
2022/04/04 05:46:53;;;;;;;6.50;5.90;;;-3.90;99.90;;;;;;4977057;28;20284;-66
2022/04/04 05:49:20;;;;;;;6.28;5.68;;;-3.50;99.90;;;;;;4976848;28;20294;-66
2022/04/04 05:51:48;;;;;;;6.30;5.70;;;-3.20;99.90;;;;;;4976977;28;20222;-67
2022/04/04 05:54:15;;;;;;;8.57;5.43;;;-2.90;99.90;;;;;;4976720;28;20214;-67
2022/04/04 05:56:44;;;;;;;5.68;5.20;;;-2.60;99.90;;;;;;4976790;28;20203;-67
2022/04/04 05:59:12;;;;;;;6.03;5.43;;;-2.30;99.90;;;;;;4977223;28;20290;-67
2022/04/04 06:01:39;;;;;;;5.32;4.95;;;-2.00;99.90;;;;;;4976838;28;20227;-68
2022/04/04 06:04:06;;;;;;;8.00;6.88;;;-1.70;99.90;;;;;;4976934;28;20290;-69
2022/04/04 06:06:33;;;;;;;6.70;6.18;;;-1.40;99.90;;;;;;4976480;28;20295;-69
2022/04/04 06:09:00;;;;;;;6.40;5.90;;;-0.90;99.90;;;;;;4976801;28;20205;-69
2022/04/04 06:11:27;;;;;;;5.55;5.05;;;-0.50;99.90;;;;;;4976510;28;20273;-67
2022/04/04 06:13:56;;;;;;;5.22;4.82;;;0.10;99.90;;;;;;4976616;28;20537;-68
2022/04/04 06:16:23;;;;;;;4.82;4.43;;;1.10;99.90;;;;;;4976301;28;20729;-67
2022/04/04 06:18:50;;;;;;;4.88;4.47;;;2.10;99.90;;;;;;4976656;28;20567;-67
2022/04/04 06:21:18;;;;;;;4.70;4.30;;;3.40;99.90;;;;;;4976677;28;20254;-68
2022/04/04 06:23:45;;;;;;;5.05;4.55;;;4.80;98.10;;;;;;4976303;28;20211;-68
2022/04/04 06:26:13;;;;;;;6.47;5.22;;;5.90;75.20;;;;;;4976757;28;20199;-68
2022/04/04 06:28:40;;;;;;;5.50;4.90;;;6.70;57.10;;;;;;4981189;28;20239;-68
2022/04/04 06:31:10;;;;;;;5.70;5.10;;;7.70;51.70;;;;;;4981952;28;20234;-69
2022/04/04 06:33:39;;;;;;;6.10;5.30;;;8.10;46.80;;;;;;4981798;28;20199;-68
2022/04/04 06:36:06;;;;;;;6.25;5.35;;;8.80;45.50;;;;;;4980517;28;20687;-68
2022/04/04 06:38:34;;;;;;;4.78;4.28;;;10.10;46.20;;;;;;4981664;28;20530;-68
2022/04/04 06:41:01;;;;;;;4.68;4.38;;;10.70;38.40;;;;;;4981483;28;20235;-68
2022/04/04 06:43:28;;;;;;;5.28;4.88;;;10.50;37.60;;;;;;4981132;28;20631;-68
2022/04/04 06:45:56;;;;;;;4.63;4.28;;;10.20;38.70;;;;;;4981212;28;20214;-68
2022/04/04 06:48:25;;;;;;;5.22;4.72;;;10.50;40.00;;;;;;4981603;28;20200;-68
2022/04/04 06:50:52;;;;;;;4.45;4.05;;;11.50;39.70;;;;;;4981018;28;20219;-68
2022/04/04 06:53:21;;;;;;;4.03;3.72;;;12.60;36.20;;;;;;4980422;28;20290;-67
2022/04/04 06:55:48;;;;;;;4.25;3.95;;;13.40;31.90;;;;;;4975889;28;20203;-68
2022/04/04 06:58:15;;;;;;;4.55;4.10;;;13.90;31.50;;;;;;4976105;28;20282;-68
2022/04/04 07:00:42;;;;;;;4.47;4.18;;;14.80;28.80;;;;;;4975787;28;20223;-69
2022/04/04 07:03:09;;;;;;;4.10;3.90;;;15.60;25.80;;;;;;4976058;28;20247;-68
2022/04/04 07:05:38;;;;;;;3.25;3.15;;;16.20;25.90;;;;;;4976057;28;20289;-68
2022/04/04 07:08:05;;;;;;;3.28;3.08;;;16.90;25.70;;;;;;4976370;28;20294;-69
2022/04/04 07:10:33;;;;;;;2.92;2.83;;;17.40;23.00;;;;;;4975629;28;20563;-69
2022/04/04 07:13:00;;;;;;;5.70;2.78;;;17.90;23.40;;;;;;4975248;28;20215;-69
2022/04/04 07:15:27;;;;;;;2.70;2.53;;;18.30;21.80;;;;;;4975665;28;20206;-69
2022/04/04 07:17:54;;;;;;;2.80;2.70;;;18.50;21.70;;;;;;4975686;28;20202;-69
2022/04/04 07:20:21;;;;;;;2.75;2.65;;;18.40;21.50;;;;;;4975529;28;20293;-69
2022/04/04 07:22:49;;;;;;;2.40;2.30;;;18.80;22.10;;;;;;4975549;28;20312;-68
2022/04/04 07:25:16;;;;;;;2.67;2.58;;;19.10;21.00;;;;;;4975568;28;20292;-68
2022/04/04 07:27:46;;;;;;;2.88;2.70;;;19.70;22.10;;;;;;4975352;28;20686;-69
2022/04/04 07:30:15;;;;;;;2.60;2.47;;;20.10;20.30;;;;;;4979010;28;20213;-68
2022/04/04 07:32:42;;;;;;;2.50;2.40;;;20.00;19.50;;;;;;4979541;28;20285;-69
2022/04/04 07:35:11;;;;;;;2.65;2.45;;;19.60;20.00;;;;;;4980281;28;20209;-68
2022/04/04 07:37:38;;;;;;;2.67;2.47;;;19.50;20.60;;;;;;4979805;28;20574;-68
2022/04/04 07:40:10;;;;;;;2.10;2.00;;;19.30;20.20;;;;;;4980645;28;20218;-68
2022/04/04 07:42:38;;;;;;;2.25;2.15;;;19.40;21.20;;;;;;4980881;28;20227;-69
2022/04/04 07:45:06;;;;;;;1.85;1.75;;;19.50;20.90;;;;;;4980025;28;20215;-69
2022/04/04 07:47:34;;;;;;;1.77;1.75;;;19.70;21.40;;;;;;4978521;28;20203;-68
2022/04/04 07:50:01;;;;;;;2.20;2.10;;;20.10;20.90;;;;;;4978543;28;20219;-68
2022/04/04 07:52:28;;;;;;;2.08;1.98;;;20.20;19.00;;;;;;4974973;28;20202;-68
2022/04/04 07:54:55;;;;;;;2.08;1.92;;;20.10;19.50;;;;;;4975374;28;20210;-69
2022/04/04 07:57:23;;;;;;;2.88;2.08;;;20.20;20.20;;;;;;4974687;28;20217;-68
2022/04/04 07:59:51;;;;;;;1.70;1.60;;;20.40;19.80;;;;;;4974758;28;20207;-69
2022/04/04 08:02:18;;;;;;;1.20;1.20;;;20.90;19.50;;;;;;4974850;28;20263;-68
2022/04/04 08:04:45;;;;;;;1.60;1.50;;;21.00;18.30;;;;;;4974812;28;20290;-69
2022/04/04 08:07:12;;;;;;;1.50;1.50;;;20.50;19.10;;;;;;4974719;28;20289;-68
2022/04/04 08:09:39;;;;;;;1.67;1.50;;;20.40;19.80;;;;;;4974547;28;20229;-68
2022/04/04 08:12:07;;;;;;;1.45;1.45;;;20.10;19.50;;;;;;4974361;28;20317;-68
2022/04/04 08:14:36;;;;;;;1.48;1.45;;;20.10;19.60;;;;;;4974573;28;20203;-69
2022/04/04 08:17:03;;;;;;;1.90;1.90;;;19.90;19.40;;;;;;4974690;28;20238;-69
2022/04/04 08:19:30;;;;;;;1.30;1.20;;;19.70;18.60;;;;;;4974526;28;20202;-68
2022/04/04 08:21:57;;;;;;;1.20;1.20;;;19.30;19.20;;;;;;4974828;28;20237;-67
2022/04/04 08:24:24;;;;;;;1.70;1.38;;;18.50;19.20;;;;;;4974716;28;20294;-67
2022/04/04 08:26:51;;;;;;;1.90;1.80;;;18.10;20.00;;;;;;4974694;28;20567;-68
2022/04/04 08:29:18;;;;;;;1.73;1.63;;;17.40;19.50;;;;;;4974835;28;20210;-68
2022/04/04 08:31:48;;;;;;;2.90;2.53;;;16.00;18.40;;;;;;4974741;28;20219;-67
2022/04/04 08:34:15;;;;;;;2.72;2.63;;;14.60;21.70;;;;;;4974604;28;20266;-67
2022/04/04 08:36:42;;;;;;;2.50;2.40;;;13.20;23.80;;;;;;4974594;28;20562;-68
2022/04/04 08:39:09;;;;;;;1.90;1.80;;;11.90;25.60;;;;;;4974560;28;20199;-67
2022/04/04 08:41:37;;;;;;;1.42;1.42;;;10.80;26.00;;;;;;4974394;28;20314;-67
2022/04/04 08:44:05;;;;;;;2.00;1.90;;;9.70;27.40;;;;;;4974329;28;20294;-67
2022/04/04 08:46:33;;;;;;;2.05;1.95;;;8.60;28.90;;;;;;4973968;28;20207;-67
2022/04/04 08:49:04;;;;;;;1.95;1.88;;;7.60;29.70;;;;;;4974500;28;20204;-67
2022/04/04 08:51:31;;;;;;;2.08;1.80;;;6.70;32.50;;;;;;4974274;28;20234;-67
2022/04/04 08:53:58;;;;;;;2.40;2.30;;;6.10;32.70;;;;;;4973971;28;20215;-67
2022/04/04 08:56:26;;;;;;;2.58;2.20;;;5.50;33.40;;;;;;4975113;28;20191;-67
2022/04/04 08:58:54;;;;;;;2.08;1.98;;;5.20;36.30;;;;;;4976071;28;20211;-68
2022/04/04 09:01:22;;;;;;;2.35;2.25;;;5.10;37.60;;;;;;4978191;28;20222;-67
2022/04/04 09:03:52;;;;;;;3.05;2.95;;;5.00;38.50;;;;;;4977885;28;20219;-68
2022/04/04 09:06:21;;;;;;;3.08;2.95;;;4.70;37.50;;;;;;4977999;28;20276;-68
2022/04/04 09:08:50;;;;;;;2.63;2.47;;;4.60;39.00;;;;;;4977973;28;20211;-68
2022/04/04 09:11:18;;;;;;;2.60;2.50;;;4.50;38.00;;;;;;4977665;28;20236;-67
2022/04/04 09:13:44;;;;;;;3.10;2.90;;;4.50;39.00;;;;;;4977462;28;20667;-67
2022/04/04 09:16:12;;;;;;;3.20;3.00;;;4.50;39.00;;;;;;4977742;28;20188;-67
2022/04/04 09:18:50;;;;;;;2.95;2.80;;;4.30;38.10;;;;;;4977697;28;20203;-67
2022/04/04 09:21:33;;;;;;;2.88;2.70;;;4.10;38.40;;;;;;4977755;28;20227;-68
2022/04/04 09:24:07;;;;;;;2.80;2.60;;;4.00;40.20;;;;;;4978094;28;20214;-67
2022/04/04 09:26:37;;;;;;;3.47;3.25;;;3.90;42.20;;;;;;4977755;28;20196;-68
2022/04/04 09:29:08;;;;;;;3.35;3.13;;;3.90;43.30;;;;;;4977651;28;20291;-68
2022/04/04 09:31:36;;;;;;;3.15;2.95;;;3.90;43.70;;;;;;4977493;28;20310;-68
2022/04/04 09:34:05;;;;;;;2.80;2.70;;;4.00;44.20;;;;;;4977532;28;20250;-68
2022/04/04 09:36:45;;;;;;;2.88;2.67;;;4.00;44.30;;;;;;4977541;28;20200;-67
2022/04/04 09:39:14;;;;;;;3.85;3.55;;;4.00;43.90;;;;;;4977231;28;20282;-67
2022/04/04 09:41:41;;;;;;;3.63;3.42;;;3.90;43.20;;;;;;4977232;28;20227;-67
2022/04/04 09:44:11;;;;;;;4.15;2.95;;;3.70;42.60;;;;;;4976762;28;20702;-67
2022/04/04 09:46:39;;;;;;;2.88;2.78;;;3.80;46.10;;;;;;4977809;28;20283;-67
2022/04/04 09:49:09;;;;;;;4.18;3.90;;;3.80;46.70;;;;;;4977310;28;20221;-67
2022/04/04 09:51:46;;;;;;;3.10;2.90;;;3.90;48.60;;;;;;4977434;28;20676;-67
2022/04/04 09:54:15;;;;;;;3.05;2.85;;;4.00;47.70;;;;;;4977522;28;20187;-68
2022/04/04 09:56:43;;;;;;;3.13;2.92;;;4.20;47.50;;;;;;4976958;28;20191;-68
2022/04/04 09:59:12;;;;;;;4.32;4.00;;;4.30;47.30;;;;;;4977090;28;20231;-67
2022/04/04 10:01:40;;;;;;;3.50;3.30;;;4.30;46.40;;;;;;4976767;28;20703;-66
2022/04/04 10:04:09;;;;;;;3.75;3.45;;;4.20;48.40;;;;;;4976885;28;20223;-67
2022/04/04 10:06:38;;;;;;;3.03;2.80;;;4.10;48.40;;;;;;4976605;28;20570;-67
2022/04/04 10:09:06;;;;;;;2.88;2.78;;;4.20;49.20;;;;;;4976931;28;20203;-67
2022/04/04 10:11:35;;;;;;;3.20;3.03;;;4.30;49.10;;;;;;4975542;28;20220;-67
2022/04/04 10:14:02;;;;;;;3.47;2.70;;;4.30;46.90;;;;;;4976865;28;20203;-67
2022/04/04 10:16:30;;;;;;;3.50;3.20;;;4.40;47.50;;;;;;4976869;28;20226;-67
2022/04/04 10:18:58;;;;;;;3.30;3.10;;;4.40;48.40;;;;;;4976800;28;20207;-67
2022/04/04 10:21:26;;;;;;;3.13;2.97;;;4.40;48.40;;;;;;4976408;28;20227;-68
2022/04/04 10:23:56;;;;;;;3.40;3.20;;;4.40;49.90;;;;;;4977195;28;20250;-67
2022/04/04 10:26:31;;;;;;;3.05;2.85;;;4.40;49.90;;;;;;4976597;28;20202;-68
2022/04/04 10:29:11;;;;;;;4.13;3.55;;;4.50;49.70;;;;;;4976558;28;20195;-68
2022/04/04 10:31:56;;;;;;;3.28;3.00;;;4.60;50.40;;;;;;4980923;28;20223;-67
2022/04/04 10:34:25;;;;;;;3.33;3.13;;;4.70;48.30;;;;;;4980138;28;20230;-67
2022/04/04 10:36:57;;;;;;;3.60;3.30;;;4.70;50.20;;;;;;4979367;28;20223;-67
2022/04/04 10:39:41;;;;;;;3.17;3.08;;;4.80;51.40;;;;;;4977416;28;20206;-67
2022/04/04 10:42:31;;;;;;;3.50;3.20;;;4.80;51.70;;;;;;4976518;28;20227;-67
2022/04/04 10:45:00;;;;;;;2.78;2.58;;;4.70;54.70;;;;;;4976474;28;20227;-67
2022/04/04 10:47:30;;;;;;;2.83;2.63;;;4.80;56.50;;;;;;4976371;28;20207;-67
2022/04/04 10:49:57;;;;;;;3.70;3.47;;;4.90;55.80;;;;;;4976193;28;20570;-67
2022/04/04 10:52:42;;;;;;;3.80;3.55;;;5.10;57.00;;;;;;4975922;28;20594;-67
2022/04/04 10:55:54;;;;;;;4.85;4.38;;;5.20;57.80;;;;;;4976489;28;20195;-67
2022/04/04 10:58:25;;;;;;;3.90;3.60;;;5.20;55.00;;;;;;4976276;28;20288;-66
2022/04/04 11:01:01;;;;;;;4.40;4.05;;;5.10;50.60;;;;;;4976091;28;20627;-67
2022/04/04 11:03:33;;;;;;;4.55;3.95;;;5.00;51.00;;;;;;4976104;28;20222;-67
2022/04/04 11:09:08;;;;;;;4.00;3.70;;;4.90;54.80;;;;;;4976093;28;20187;-67
2022/04/04 11:11:41;;;;;;;4.53;4.22;;;4.90;56.20;;;;;;4975621;28;20249;-67
2022/04/04 11:14:10;;;;;;;3.95;3.65;;;5.00;59.90;;;;;;4976070;28;20199;-66
2022/04/04 11:17:17;;;;;;;3.50;3.30;;;5.30;57.60;;;;;;4976169;28;20206;-67
2022/04/04 11:19:45;;;;;;;4.70;4.30;;;5.30;58.00;;;;;;4976097;28;20187;-67
2022/04/04 11:22:14;;;;;;;4.85;4.45;;;5.40;57.80;;;;;;4977173;28;20227;-67
2022/04/04 11:24:42;;;;;;;3.88;3.63;;;5.40;56.90;;;;;;4980178;28;20212;-68
2022/04/04 11:27:11;;;;;;;4.05;3.78;;;5.40;55.20;;;;;;4979747;28;20204;-67
2022/04/04 11:29:42;;;;;;;3.70;3.50;;;5.50;55.30;;;;;;4980033;28;20207;-67
2022/04/04 11:32:15;;;;;;;4.38;3.90;;;5.50;56.80;;;;;;4979557;28;20234;-67
2022/04/04 11:34:43;;;;;;;3.50;3.30;;;5.60;59.70;;;;;;4981018;28;20195;-67
2022/04/04 11:37:18;;;;;;;4.43;4.13;;;5.50;56.50;;;;;;4980383;28;20234;-67
2022/04/04 11:39:47;;;;;;;4.75;4.45;;;5.40;56.90;;;;;;4980197;28;20191;-67
2022/04/04 11:42:15;;;;;;;4.57;4.18;;;5.30;57.00;;;;;;4979965;28;20231;-67
2022/04/04 11:44:50;;;;;;;4.32;4.03;;;5.30;56.00;;;;;;4980972;28;20219;-67
2022/04/04 11:47:18;;;;;;;4.63;4.28;;;5.20;56.90;;;;;;4979759;28;20202;-67
2022/04/04 11:49:46;;;;;;;4.25;3.95;;;5.10;59.60;;;;;;4979496;28;20210;-68
2022/04/04 11:52:18;;;;;;;3.83;3.63;;;5.20;57.10;;;;;;4979356;28;20223;-67
2022/04/04 11:54:49;;;;;;;3.42;3.22;;;5.20;59.70;;;;;;4978607;28;20187;-66
2022/04/04 11:57:17;;;;;;;4.47;4.13;;;5.30;61.10;;;;;;4980189;28;20555;-66
2022/04/04 11:59:46;;;;;;;3.70;3.50;;;5.30;57.40;;;;;;4979017;28;20206;-67
2022/04/04 12:02:16;;;;;;;5.07;4.68;;;5.30;59.00;;;;;;4978381;28;20286;-67
2022/04/04 12:04:45;;;;;;;5.15;4.70;;;5.30;61.50;;;;;;4980302;28;20223;-69
2022/04/04 12:07:12;;;;;;;6.65;4.85;;;5.40;62.80;;;;;;4978574;28;20207;-68
2022/04/04 12:09:40;;;;;;;4.82;4.43;;;5.40;65.40;;;;;;4980038;28;20207;-69
2022/04/04 12:12:09;;;;;;;5.18;4.78;;;5.40;63.50;;;;;;4979798;28;20235;-68
2022/04/04 12:14:38;;;;;;;4.82;4.43;;;5.40;59.60;;;;;;4979731;28;20203;-68
2022/04/04 12:17:06;;;;;;;4.70;4.10;;;5.40;59.50;;;;;;4979679;28;20211;-66
2022/04/04 12:19:42;;;;;;;3.85;3.55;;;5.40;62.60;;;;;;4980185;28;20203;-66
2022/04/04 12:24:55;;;;;;;4.10;3.85;;;5.50;66.00;;;;;;4981578;28;20227;-66
2022/04/04 12:24:59;;;;;;;4.97;4.47;;;5.60;67.00;;;;;;4976396;28;20283;-65
2022/04/04 12:27:26;;;;;;;4.70;4.30;;;5.70;63.90;;;;;;4975082;28;20294;-67
2022/04/04 12:30:00;;;;;;;5.32;4.93;;;5.70;59.70;;;;;;4974941;28;20199;-67
2022/04/04 12:32:27;;;;;;;4.50;4.20;;;5.70;57.60;;;;;;4974622;28;20682;-67
2022/04/04 12:34:57;;;;;;;4.75;4.35;;;5.60;58.80;;;;;;4980524;28;20210;-67
2022/04/04 12:37:33;;;;;;;4.60;4.30;;;5.50;56.90;;;;;;4980867;28;20210;-67
2022/04/04 12:40:17;;;;;;;4.32;4.00;;;5.50;59.70;;;;;;4981513;28;20282;-67
2022/04/04 12:42:45;;;;;;;5.53;5.05;;;5.40;60.70;;;;;;4981704;28;20197;-67
2022/04/04 12:45:12;;;;;;;5.68;5.13;;;5.40;59.00;;;;;;4980251;28;20223;-67
2022/04/04 12:47:59;;;;;;;4.55;4.25;;;5.40;59.60;;;;;;4980449;28;20757;-68
2022/04/04 12:50:40;;;;;;;5.60;5.10;;;5.40;61.80;;;;;;4980547;28;20645;-68
2022/04/04 12:53:09;;;;;;;4.70;4.32;;;5.30;59.60;;;;;;4980844;28;20187;-67
2022/04/04 12:55:37;;;;;;;4.55;4.15;;;5.40;61.30;;;;;;4980763;28;20207;-67
2022/04/04 12:58:19;;;;;;;5.03;4.63;;;5.30;59.20;;;;;;4981214;28;20207;-68
2022/04/04 13:00:47;;;;;;;4.55;4.15;;;5.30;61.10;;;;;;4980259;28;20230;-68
2022/04/04 13:03:23;;;;;;;4.30;3.90;;;5.40;62.50;;;;;;4980605;28;20207;-68
2022/04/04 13:05:53;;;;;;;4.50;4.13;;;5.40;64.00;;;;;;4980762;28;20211;-68
2022/04/04 13:08:22;;;;;;;4.95;4.45;;;5.40;63.70;;;;;;4981425;28;20191;-68
2022/04/04 13:11:05;;;;;;;4.90;4.50;;;5.50;59.30;;;;;;4980790;28;20229;-68
2022/04/04 13:13:34;;;;;;;4.30;4.00;;;5.40;59.20;;;;;;4980633;28;20586;-68
2022/04/04 13:16:01;;;;;;;4.65;4.28;;;5.40;59.90;;;;;;4980728;28;20206;-68
2022/04/04 13:18:28;;;;;;;4.03;3.72;;;5.40;56.70;;;;;;4980741;28;20207;-68
2022/04/04 13:20:56;;;;;;;3.85;3.65;;;5.40;60.00;;;;;;4980624;28;20233;-68
2022/04/04 13:23:23;;;;;;;3.97;3.72;;;5.40;60.40;;;;;;4980618;28;20298;-68
2022/04/04 13:25:51;;;;;;;3.85;3.58;;;5.40;58.90;;;;;;4980727;28;20266;-65
2022/04/04 13:28:18;;;;;;;4.53;4.15;;;5.50;58.70;;;;;;4981064;28;20214;-65
2022/04/04 13:30:45;;;;;;;5.05;4.57;;;5.50;58.70;;;;;;4980685;28;20228;-65
2022/04/04 13:33:12;;;;;;;4.40;4.10;;;5.40;57.50;;;;;;4980231;28;20213;-65
2022/04/04 13:35:39;;;;;;;5.65;5.15;;;5.40;57.50;;;;;;4980464;28;20208;-66
2022/04/04 13:38:07;;;;;;;4.90;4.50;;;5.40;58.60;;;;;;4980510;28;20293;-65
2022/04/04 13:40:34;;;;;;;5.45;4.90;;;5.40;57.30;;;;;;4980405;28;20227;-65
2022/04/04 13:43:01;;;;;;;5.35;4.88;;;5.40;60.00;;;;;;4980142;28;20202;-65
2022/04/04 13:45:28;;;;;;;5.45;4.97;;;5.30;60.80;;;;;;4978577;28;20293;-65
2022/04/04 13:47:55;;;;;;;5.32;4.50;;;5.30;61.70;;;;;;4977438;28;20206;-66
2022/04/04 13:50:22;;;;;;;4.32;4.03;;;5.40;62.10;;;;;;4977257;28;20274;-66
2022/04/04 13:52:49;;;;;;;5.00;4.60;;;5.40;61.50;;;;;;4977515;28;20295;-66
2022/04/04 13:55:17;;;;;;;4.20;3.85;;;5.40;61.30;;;;;;4977289;28;20285;-65
2022/04/04 13:57:44;;;;;;;5.03;4.63;;;5.50;59.70;;;;;;4977251;28;20191;-65
2022/04/04 14:00:12;;;;;;;4.82;4.43;;;5.50;59.50;;;;;;4976973;28;20207;-66
2022/04/04 14:02:43;;;;;;;4.22;3.92;;;5.60;59.60;;;;;;4976829;28;20535;-66
2022/04/04 14:05:12;;;;;;;4.88;4.40;;;5.60;58.70;;;;;;4977256;28;20215;-65
2022/04/04 14:07:40;;;;;;;4.88;4.47;;;5.60;57.00;;;;;;4977013;28;20215;-65
2022/04/04 14:10:07;;;;;;;4.63;4.30;;;5.60;57.60;;;;;;4976742;28;20665;-66
2022/04/04 14:12:36;;;;;;;4.32;4.00;;;5.60;57.90;;;;;;4977284;28;20310;-65
2022/04/04 14:15:06;;;;;;;4.10;3.90;;;5.60;58.10;;;;;;4977901;28;20199;-65
2022/04/04 14:17:35;;;;;;;3.78;3.47;;;5.60;58.20;;;;;;4977739;28;20544;-65
2022/04/04 14:20:03;;;;;;;4.70;4.30;;;5.60;58.10;;;;;;4977565;28;20207;-66
2022/04/04 14:22:30;;;;;;;4.20;3.90;;;5.60;56.80;;;;;;4977368;28;20585;-66
2022/04/04 14:24:57;;;;;;;4.25;3.95;;;5.60;56.10;;;;;;4977035;28;20230;-65
2022/04/04 14:27:25;;;;;;;4.05;3.67;;;5.60;56.40;;;;;;4976759;28;20611;-65
2022/04/04 14:29:54;;;;;;;4.32;4.03;;;5.60;56.40;;;;;;4976306;28;20214;-66
2022/04/04 14:32:21;;;;;;;4.07;3.78;;;5.60;57.20;;;;;;4976475;28;20223;-66
2022/04/04 14:34:49;;;;;;;4.30;3.75;;;5.60;57.30;;;;;;4976512;28;20215;-65
2022/04/04 14:37:16;;;;;;;4.53;4.22;;;5.60;57.30;;;;;;4976543;28;20215;-65
2022/04/04 14:39:45;;;;;;;3.80;3.60;;;5.70;55.60;;;;;;4976405;28;20187;-65
2022/04/04 14:42:13;;;;;;;5.13;4.72;;;5.70;55.40;;;;;;4976321;28;20231;-65
2022/04/04 14:44:41;;;;;;;3.85;3.55;;;5.60;55.00;;;;;;4976086;28;20229;-65
2022/04/04 14:47:09;;;;;;;3.63;3.42;;;5.70;55.40;;;;;;4975890;28;20200;-65
2022/04/04 14:49:36;;;;;;;3.85;3.55;;;5.70;54.30;;;;;;4975915;28;20754;-64
2022/04/04 14:52:04;;;;;;;3.25;3.05;;;5.70;54.00;;;;;;4976146;28;20223;-68
2022/04/04 14:54:32;;;;;;;3.42;3.17;;;5.70;53.20;;;;;;4976187;28;20203;-68
2022/04/04 14:57:02;;;;;;;3.20;3.00;;;5.80;52.70;;;;;;4975785;28;20199;-68
2022/04/04 14:59:29;;;;;;;3.58;3.35;;;5.80;50.60;;;;;;4976716;28;20282;-69
2022/04/04 15:01:56;;;;;;;2.65;2.53;;;5.90;52.60;;;;;;4976448;28;20258;-69
2022/04/04 15:04:25;;;;;;;3.10;2.90;;;6.00;52.80;;;;;;4976491;28;20306;-70
2022/04/04 15:06:52;;;;;;;2.60;2.50;;;6.00;51.60;;;;;;4976261;28;20204;-68
2022/04/04 15:09:20;;;;;;;3.28;3.08;;;6.00;49.20;;;;;;4975699;28;20671;-67
2022/04/04 15:11:47;;;;;;;3.50;3.30;;;6.00;47.90;;;;;;4975902;28;20235;-69
2022/04/04 15:14:13;;;;;;;3.03;2.83;;;6.00;48.90;;;;;;4975951;28;20231;-67
2022/04/04 15:16:42;;;;;;;3.63;3.00;;;5.90;48.80;;;;;;4975757;28;20562;-68
2022/04/04 15:19:09;;;;;;;3.50;3.20;;;6.00;48.60;;;;;;4975839;28;20294;-68
2022/04/04 15:21:38;;;;;;;4.50;3.08;;;5.90;48.00;;;;;;4975885;28;20226;-67
2022/04/04 15:24:06;;;;;;;2.70;2.60;;;5.90;47.60;;;;;;4975686;28;20214;-67
2022/04/04 15:26:35;;;;;;;3.45;3.20;;;5.90;46.30;;;;;;4976103;28;20353;-67
2022/04/04 15:29:02;;;;;;;3.13;2.92;;;5.90;45.90;;;;;;4975732;28;20214;-68
2022/04/04 15:31:29;;;;;;;3.13;2.92;;;5.90;45.30;;;;;;4975633;28;20219;-67
2022/04/04 15:33:56;;;;;;;3.13;2.92;;;5.80;46.30;;;;;;4975472;28;20199;-67
2022/04/04 15:36:24;;;;;;;2.72;2.53;;;5.80;46.20;;;;;;4975130;28;20634;-68
2022/04/04 15:38:52;;;;;;;2.33;2.22;;;5.70;47.90;;;;;;4975910;28;20298;-67
2022/04/04 15:41:25;;;;;;;2.58;2.47;;;5.70;46.70;;;;;;4975384;28;20223;-67
2022/04/04 15:43:53;;;;;;;2.90;2.80;;;5.70;46.20;;;;;;4975379;28;20187;-68
2022/04/04 15:46:23;;;;;;;3.30;3.00;;;5.70;47.20;;;;;;4975207;28;20621;-67
2022/04/04 15:48:50;;;;;;;2.60;2.50;;;5.80;48.50;;;;;;4974963;28;20203;-67
2022/04/04 15:51:18;;;;;;;3.28;2.97;;;5.80;47.70;;;;;;4975601;28;20219;-68
2022/04/04 15:53:45;;;;;;;2.80;2.67;;;5.80;47.70;;;;;;4975568;28;20233;-67
2022/04/04 15:56:14;;;;;;;2.38;2.28;;;5.80;47.30;;;;;;4975085;28;20207;-67
2022/04/04 15:58:41;;;;;;;2.88;2.75;;;5.80;46.30;;;;;;4974814;28;20207;-67
2022/04/04 16:01:07;;;;;;;2.60;2.50;;;5.80;47.60;;;;;;4974756;28;20703;-67
2022/04/04 16:03:34;;;;;;;3.28;2.83;;;5.90;47.80;;;;;;4974940;28;20290;-68
2022/04/04 16:06:03;;;;;;;2.00;1.90;;;6.00;47.90;;;;;;4974584;28;20233;-67
2022/04/04 16:08:30;;;;;;;2.63;2.50;;;6.10;49.20;;;;;;4973786;28;20214;-67
2022/04/04 16:10:57;;;;;;;2.58;2.40;;;6.20;48.10;;;;;;4975162;28;20250;-67
2022/04/04 16:13:25;;;;;;;2.22;2.13;;;6.30;48.20;;;;;;4975361;28;20310;-67
2022/04/04 16:15:52;;;;;;;2.42;2.33;;;6.30;46.70;;;;;;4975318;28;20196;-67
2022/04/04 16:18:19;;;;;;;2.10;2.00;;;6.40;48.00;;;;;;4975173;28;20290;-67
2022/04/04 16:20:46;;;;;;;2.75;2.55;;;6.40;47.30;;;;;;4974324;28;20744;-68
2022/04/04 16:23:13;;;;;;;2.70;2.60;;;6.50;48.00;;;;;;4974921;28;20207;-68
2022/04/04 16:25:40;;;;;;;2.38;2.28;;;6.50;48.60;;;;;;4975216;28;20227;-68
2022/04/04 16:28:07;;;;;;;2.15;2.05;;;6.50;48.00;;;;;;4975020;28;20229;-66
2022/04/04 16:30:35;;;;;;;2.10;2.08;;;6.40;47.20;;;;;;4974683;28;20306;-67
2022/04/04 16:33:04;;;;;;;2.20;2.10;;;6.40;47.10;;;;;;4975001;28;20289;-67
2022/04/04 16:35:31;;;;;;;2.00;1.90;;;6.30;47.60;;;;;;4974680;28;20187;-67
2022/04/04 16:38:00;;;;;;;1.92;1.83;;;6.30;46.70;;;;;;4974586;28;20207;-67
2022/04/04 16:40:27;;;;;;;2.05;1.95;;;6.20;47.10;;;;;;4974288;28;20591;-68
2022/04/04 16:42:54;;;;;;;1.83;1.75;;;6.20;47.50;;;;;;4974455;28;20294;-68
2022/04/04 16:45:21;;;;;;;1.98;1.95;;;6.10;47.00;;;;;;4974488;28;20215;-67
2022/04/04 16:47:50;;;;;;;2.20;2.10;;;6.00;45.80;;;;;;4974190;28;20689;-67
2022/04/04 16:50:18;;;;;;;1.90;1.90;;;5.90;45.90;;;;;;4974548;28;20675;-68
2022/04/04 16:52:45;;;;;;;2.08;1.90;;;5.80;45.50;;;;;;4974349;28;20204;-68
2022/04/04 16:55:12;;;;;;;2.25;1.77;;;5.80;45.70;;;;;;4974167;28;20202;-67
2022/04/04 16:57:39;;;;;;;3.40;2.70;;;5.70;45.10;;;;;;4974105;28;20207;-67
2022/04/04 17:00:09;;;;;;;2.75;2.55;;;5.60;44.80;;;;;;4974322;28;20199;-67
2022/04/04 17:02:36;;;;;;;3.95;3.55;;;5.60;45.40;;;;;;4975073;28;20220;-67
2022/04/04 17:05:05;;;;;;;3.58;3.20;;;5.50;46.00;;;;;;4974330;28;20226;-67
2022/04/04 17:07:32;;;;;;;2.97;2.78;;;5.50;46.40;;;;;;4974349;28;20565;-67
2022/04/04 17:09:59;;;;;;;2.83;2.55;;;5.40;47.30;;;;;;4974140;28;20315;-67
2022/04/04 17:12:26;;;;;;;3.08;2.70;;;5.40;47.30;;;;;;4974222;28;20231;-67
2022/04/04 17:14:53;;;;;;;2.33;2.22;;;5.30;47.10;;;;;;4974102;28;20675;-67